Time;durP1;ratioP1;P1;durP2;ratioP2;P2;SDS_P1;SDS_P2;PMS_P1;PMS_P2;Temp;Humidity;BMP_temperature;BMP_pressure;BME280_temperature;BME280_humidity;BME280_pressure;Samples;Min_cycle;Max_cycle;Signal;HPM_P1;HPM_P2
2022/12/27 00:02:14;;;;;;;13.70;4.30;;;2.00;99.90;;;;;;5095235;28;20468;-90
2022/12/27 00:04:40;;;;;;;8.50;3.88;;;1.90;99.90;;;;;;5079215;28;20031;-89
2022/12/27 00:07:06;;;;;;;7.55;3.15;;;1.90;99.90;;;;;;5073174;28;20026;-89
2022/12/27 00:09:32;;;;;;;6.47;3.17;;;1.80;99.90;;;;;;5067876;28;20053;-90
2022/12/27 00:11:58;;;;;;;9.02;2.97;;;1.70;99.90;;;;;;5067658;28;20040;-89
2022/12/27 00:14:23;;;;;;;4.85;2.95;;;1.70;99.90;;;;;;5097048;28;20122;-90
2022/12/27 00:16:49;;;;;;;8.65;2.88;;;1.60;99.90;;;;;;5061131;28;20038;-90
2022/12/27 00:19:49;;;;;;;5.47;2.58;;;1.50;99.90;;;;;;5084124;28;20031;-89
2022/12/27 00:22:15;;;;;;;7.47;2.92;;;1.40;99.90;;;;;;5049710;28;20026;-90
2022/12/27 00:24:40;;;;;;;8.40;2.80;;;1.40;99.90;;;;;;5042597;28;20032;-90
2022/12/27 00:27:06;;;;;;;5.07;2.17;;;1.30;99.90;;;;;;5047449;28;20036;-89
2022/12/27 00:29:32;;;;;;;4.50;1.80;;;1.20;99.90;;;;;;5055660;28;20032;-89
2022/12/27 00:31:57;;;;;;;10.82;2.25;;;1.10;99.90;;;;;;5065106;28;20027;-90
2022/12/27 00:34:23;;;;;;;7.10;2.50;;;1.00;99.90;;;;;;5068072;28;20037;-89
2022/12/27 00:36:48;;;;;;;11.48;2.22;;;0.90;99.90;;;;;;5109148;28;20039;-89
2022/12/27 00:39:14;;;;;;;3.85;1.90;;;0.80;99.90;;;;;;5061617;28;20048;-89
2022/12/27 00:41:46;;;;;;;8.27;2.45;;;0.80;99.90;;;;;;5068357;28;20051;-90
2022/12/27 00:44:12;;;;;;;10.70;2.47;;;0.90;99.90;;;;;;5070020;28;20050;-90
2022/12/27 00:46:37;;;;;;;4.38;2.08;;;0.80;99.90;;;;;;5069942;28;20071;-88
2022/12/27 00:49:03;;;;;;;6.82;1.90;;;0.70;99.90;;;;;;5081451;28;20038;-90
2022/12/27 00:51:29;;;;;;;10.85;2.30;;;0.60;99.90;;;;;;5100807;28;20104;-89
2022/12/27 00:54:23;;;;;;;9.48;2.85;;;0.50;99.90;;;;;;5055952;28;20033;-90
2022/12/27 00:56:48;;;;;;;6.65;2.15;;;0.60;99.90;;;;;;5071900;28;20027;-89
2022/12/27 00:59:14;;;;;;;13.23;2.75;;;0.60;99.90;;;;;;5059862;28;20035;-90
2022/12/27 01:01:40;;;;;;;4.55;2.03;;;0.70;99.90;;;;;;5089943;28;20055;-89
2022/12/27 01:04:06;;;;;;;7.75;2.45;;;0.70;99.90;;;;;;5071613;28;20092;-90
2022/12/27 01:06:33;;;;;;;9.43;1.85;;;0.60;99.90;;;;;;5075636;28;20025;-90
2022/12/27 01:09:00;;;;;;;10.98;1.80;;;0.60;99.90;;;;;;5088918;28;20122;-89
2022/12/27 01:11:27;;;;;;;6.18;1.60;;;0.60;99.90;;;;;;5064836;28;20026;-89
2022/12/27 01:13:57;;;;;;;7.72;2.25;;;0.50;99.90;;;;;;5080098;28;20027;-90
2022/12/27 01:16:24;;;;;;;5.07;1.95;;;0.50;99.90;;;;;;5099096;28;20032;-89
2022/12/27 01:18:50;;;;;;;5.97;1.77;;;0.40;99.90;;;;;;5067995;28;20039;-89
2022/12/27 01:21:19;;;;;;;3.42;1.63;;;0.40;99.90;;;;;;5086856;28;20023;-90
2022/12/27 01:23:46;;;;;;;16.33;1.85;;;0.40;99.90;;;;;;5058114;28;20469;-89
2022/12/27 01:26:14;;;;;;;4.70;1.73;;;0.50;99.90;;;;;;5074637;28;20347;-89
2022/12/27 01:28:39;;;;;;;4.15;1.70;;;0.70;99.90;;;;;;5060892;28;20481;-89
2022/12/27 01:31:06;;;;;;;4.65;1.90;;;0.80;99.90;;;;;;5076364;28;20038;-89
2022/12/27 01:33:32;;;;;;;5.80;1.48;;;0.80;99.90;;;;;;5073456;28;20024;-90
2022/12/27 01:36:07;;;;;;;5.10;1.73;;;0.90;99.90;;;;;;5080394;28;20076;-89
2022/12/27 01:38:33;;;;;;;7.07;1.80;;;1.00;99.90;;;;;;5055202;28;20041;-88
2022/12/27 01:40:58;;;;;;;7.53;1.90;;;1.10;99.90;;;;;;5074179;28;20032;-88
2022/12/27 01:43:37;;;;;;;7.00;1.77;;;1.10;99.90;;;;;;5043425;28;20030;-88
2022/12/27 01:46:03;;;;;;;3.60;1.35;;;1.10;99.90;;;;;;5068191;28;20029;-89
2022/12/27 01:48:29;;;;;;;5.93;1.55;;;1.20;99.90;;;;;;5072645;28;20071;-89
2022/12/27 01:51:00;;;;;;;12.60;2.33;;;1.20;99.90;;;;;;5061125;28;20028;-90
2022/12/27 01:53:25;;;;;;;;;;;1.30;99.90;;;;;;5058803;28;20117;-89
2022/12/27 01:56:00;;;;;;;11.38;4.22;;;1.40;99.90;;;;;;5133653;27;19963;-90
2022/12/27 01:58:26;;;;;;;13.13;4.07;;;1.30;99.90;;;;;;5044244;28;20030;-90
2022/12/27 02:00:52;;;;;;;9.98;2.50;;;1.30;99.90;;;;;;5107522;28;20028;-90
2022/12/27 02:03:34;;;;;;;7.13;1.55;;;1.30;99.90;;;;;;5093785;28;20037;-89
2022/12/27 02:06:02;;;;;;;7.00;1.83;;;1.40;99.90;;;;;;5081118;27;20486;-89
2022/12/27 02:08:40;;;;;;;6.82;2.15;;;1.50;99.90;;;;;;5098374;28;20036;-89
2022/12/27 02:11:07;;;;;;;8.95;1.65;;;1.50;99.90;;;;;;5058860;28;20034;-90
2022/12/27 02:13:37;;;;;;;7.03;1.70;;;1.60;99.90;;;;;;5095773;28;20042;-89
2022/12/27 02:16:19;;;;;;;8.27;1.80;;;1.60;99.90;;;;;;5064814;28;20030;-89
2022/12/27 02:18:45;;;;;;;9.88;1.92;;;1.60;99.90;;;;;;5096126;28;20126;-89
2022/12/27 02:21:36;;;;;;;9.48;3.05;;;1.60;99.90;;;;;;5085027;28;20116;-89
2022/12/27 02:24:30;;;;;;;4.78;1.85;;;1.70;99.90;;;;;;5058747;28;20022;-89
2022/12/27 02:27:04;;;;;;;10.68;2.08;;;1.70;99.90;;;;;;5011962;28;20357;-89
2022/12/27 02:33:17;;;;;;;14.88;2.45;;;1.70;99.90;;;;;;5040166;28;20038;-90
2022/12/27 02:35:51;;;;;;;6.75;2.15;;;1.70;99.90;;;;;;5089270;28;20108;-89
2022/12/27 02:38:26;;;;;;;3.83;2.28;;;1.80;99.90;;;;;;5057071;28;20488;-89
2022/12/27 02:55:17;;;;;;;6.45;2.10;;;1.90;99.90;;;;;;5124734;27;20039;-90
2022/12/27 02:58:01;;;;;;;8.45;2.08;;;1.90;99.90;;;;;;5068718;28;20089;-89
2022/12/27 03:07:55;;;;;;;7.22;1.95;;;1.80;99.90;;;;;;5040389;28;20105;-89
2022/12/27 03:16:25;;;;;;;7.72;2.33;;;1.60;99.90;;;;;;5075329;28;20118;-89
2022/12/27 03:18:57;;;;;;;18.25;5.03;;;1.60;99.90;;;;;;5071903;28;20362;-89
2022/12/27 03:27:16;;;;;;;23.13;6.63;;;1.50;99.90;;;;;;5068566;28;20022;-88
2022/12/27 03:33:11;;;;;;;17.00;6.43;;;1.40;99.90;;;;;;5063378;28;20038;-88
2022/12/27 03:39:04;;;;;;;13.63;4.45;;;1.40;99.90;;;;;;5059256;28;20040;-89
2022/12/27 03:44:24;;;;;;;;;;;1.40;99.90;;;;;;5093058;28;20024;-89
2022/12/27 03:47:01;;;;;;;21.10;4.80;;;1.50;99.90;;;;;;5047437;28;19965;-90
2022/12/27 03:49:40;;;;;;;21.42;6.32;;;1.60;99.90;;;;;;5085834;28;20035;-89
2022/12/27 03:52:16;;;;;;;15.15;5.25;;;1.70;99.90;;;;;;5038691;28;20114;-90
2022/12/27 03:54:44;;;;;;;30.38;7.72;;;1.70;99.90;;;;;;5073468;28;20477;-89
2022/12/27 03:57:16;;;;;;;11.85;4.90;;;1.70;99.90;;;;;;5073372;28;20024;-89
2022/12/27 04:00:07;;;;;;;11.00;3.53;;;1.70;99.90;;;;;;5061560;28;20489;-89
2022/12/27 04:02:39;;;;;;;11.82;5.70;;;1.60;99.90;;;;;;5066317;28;20037;-89
2022/12/27 04:05:05;;;;;;;10.95;3.75;;;1.60;99.90;;;;;;5093513;28;20402;-90
2022/12/27 04:07:30;;;;;;;8.00;3.33;;;1.60;99.90;;;;;;5069222;28;20019;-89
2022/12/27 04:35:23;;;;;;;11.55;3.63;;;1.70;99.90;;;;;;5083572;28;20468;-89
2022/12/27 04:37:49;;;;;;;12.48;3.10;;;1.70;99.90;;;;;;5066479;28;20128;-89
2022/12/27 04:56:42;;;;;;;19.98;3.88;;;1.10;99.90;;;;;;5078839;28;20026;-89
2022/12/27 05:02:03;;;;;;;19.45;3.63;;;0.90;99.90;;;;;;5124771;28;20030;-89
2022/12/27 05:04:30;;;;;;;14.25;3.20;;;0.70;99.90;;;;;;5071946;28;20117;-89
2022/12/27 05:06:57;;;;;;;10.68;3.83;;;0.60;99.90;;;;;;5072989;28;20031;-89
2022/12/27 05:14:54;;;;;;;15.32;5.35;;;0.50;99.90;;;;;;5126261;28;20062;-90
2022/12/27 05:17:19;;;;;;;19.90;4.90;;;0.60;99.90;;;;;;5076082;28;20455;-89
2022/12/27 05:19:45;;;;;;;15.25;4.70;;;0.60;99.90;;;;;;5063060;28;20416;-89
2022/12/27 05:27:39;;;;;;;12.65;4.57;;;0.70;99.90;;;;;;5063425;28;20079;-89
2022/12/27 05:30:05;;;;;;;18.38;5.20;;;0.60;99.90;;;;;;5105570;28;20028;-89
2022/12/27 05:32:31;;;;;;;20.10;4.90;;;0.50;99.90;;;;;;5058392;28;20033;-89
2022/12/27 05:34:57;;;;;;;22.58;5.32;;;0.50;99.90;;;;;;5099819;28;20455;-89
2022/12/27 05:37:22;;;;;;;20.10;6.05;;;0.50;99.90;;;;;;5086035;28;20463;-88
2022/12/27 05:39:48;;;;;;;16.90;5.82;;;0.50;99.90;;;;;;5094930;28;20024;-89
2022/12/27 05:42:14;;;;;;;28.02;8.32;;;0.60;99.90;;;;;;5074472;28;20019;-89
2022/12/27 05:44:39;;;;;;;32.15;8.05;;;0.70;99.90;;;;;;5076093;28;20024;-89
2022/12/27 05:47:05;;;;;;;17.25;6.97;;;0.80;99.90;;;;;;5046928;28;20016;-89
2022/12/27 05:49:30;;;;;;;23.17;7.53;;;0.80;99.90;;;;;;5069604;28;20103;-89
2022/12/27 05:51:56;;;;;;;26.33;9.68;;;0.90;99.90;;;;;;5092472;28;20111;-90
2022/12/27 05:54:22;;;;;;;31.10;11.23;;;1.00;99.90;;;;;;5061582;28;20016;-90
2022/12/27 05:56:47;;;;;;;26.90;11.73;;;1.00;99.90;;;;;;5078191;28;20034;-89
2022/12/27 05:59:13;;;;;;;27.83;13.02;;;1.00;99.90;;;;;;5096885;28;20027;-89
2022/12/27 06:01:39;;;;;;;31.67;12.98;;;1.00;99.90;;;;;;5065039;28;20117;-89
2022/12/27 06:04:04;;;;;;;30.25;13.73;;;1.10;99.90;;;;;;5109218;28;20073;-89
2022/12/27 06:06:30;;;;;;;31.15;13.93;;;1.10;99.90;;;;;;5059547;28;20018;-89
2022/12/27 06:08:55;;;;;;;42.08;14.40;;;1.10;99.90;;;;;;5099805;28;20119;-89
2022/12/27 06:11:21;;;;;;;35.28;14.77;;;1.10;99.90;;;;;;5070261;28;20028;-89
2022/12/27 06:13:52;;;;;;;39.88;15.77;;;1.10;99.90;;;;;;5080499;28;20033;-90
2022/12/27 06:16:19;;;;;;;38.35;16.95;;;1.10;99.90;;;;;;5070644;28;20386;-89
2022/12/27 06:18:45;;;;;;;33.05;15.40;;;1.10;99.90;;;;;;5072986;28;20181;-89
2022/12/27 06:21:14;;;;;;;37.92;15.95;;;1.20;99.90;;;;;;5065855;28;20473;-89
2022/12/27 06:23:52;;;;;;;37.13;14.85;;;1.20;99.90;;;;;;5084825;28;20375;-89
2022/12/27 06:26:23;;;;;;;44.45;16.55;;;1.20;99.90;;;;;;5097083;28;20087;-89
2022/12/27 06:28:50;;;;;;;41.28;17.73;;;1.20;99.90;;;;;;5056149;28;20034;-89
2022/12/27 06:31:19;;;;;;;38.92;16.67;;;1.10;99.90;;;;;;5074175;28;20028;-89
2022/12/27 06:33:45;;;;;;;35.47;16.05;;;1.20;99.90;;;;;;5042531;28;20034;-90
2022/12/27 06:36:13;;;;;;;42.03;17.10;;;1.20;99.90;;;;;;5083271;28;20372;-91
2022/12/27 06:38:40;;;;;;;38.28;15.98;;;1.20;99.90;;;;;;5088107;28;20064;-89
2022/12/27 06:41:09;;;;;;;37.97;15.90;;;1.30;99.90;;;;;;5059836;28;20020;-90
2022/12/27 06:43:35;;;;;;;42.70;17.08;;;1.30;99.90;;;;;;5081111;28;20101;-89
2022/12/27 06:46:12;;;;;;;33.03;17.15;;;1.40;99.90;;;;;;5099640;28;20102;-88
2022/12/27 06:48:38;;;;;;;36.33;15.82;;;1.50;99.90;;;;;;4979037;28;20053;-89
2022/12/27 06:51:12;;;;;;;41.58;15.77;;;1.50;99.90;;;;;;5062154;28;20413;-89
2022/12/27 06:53:37;;;;;;;34.28;14.65;;;1.50;99.90;;;;;;5075990;28;20030;-90
2022/12/27 06:56:09;;;;;;;41.10;15.95;;;1.40;99.90;;;;;;5085086;28;20474;-89
2022/12/27 06:58:35;;;;;;;37.30;15.32;;;1.40;99.90;;;;;;5097083;27;20026;-90
2022/12/27 07:01:15;;;;;;;42.50;14.98;;;1.40;99.90;;;;;;5083642;28;20027;-89
2022/12/27 07:03:42;;;;;;;45.13;15.45;;;1.40;99.90;;;;;;5000085;28;20061;-89
2022/12/27 07:06:10;;;;;;;45.35;15.40;;;1.40;99.90;;;;;;5008802;28;20026;-89
2022/12/27 07:09:01;;;;;;;42.17;16.00;;;1.40;99.90;;;;;;5080727;28;20057;-88
2022/12/27 07:11:27;;;;;;;45.65;16.80;;;1.40;99.90;;;;;;5079478;28;20074;-89
2022/12/27 07:13:54;;;;;;;43.10;15.13;;;1.40;99.90;;;;;;5054518;28;20065;-88
2022/12/27 07:16:36;;;;;;;44.35;14.80;;;1.30;99.90;;;;;;5025783;28;20044;-89
2022/12/27 07:19:02;;;;;;;51.63;15.23;;;1.30;99.90;;;;;;5108701;28;20570;-89
2022/12/27 07:21:28;;;;;;;31.92;12.73;;;1.30;99.90;;;;;;5052504;28;20059;-89
2022/12/27 07:23:55;;;;;;;35.17;13.27;;;1.40;99.90;;;;;;5104367;27;20030;-90
2022/12/27 07:27:01;;;;;;;39.03;12.90;;;1.40;99.90;;;;;;5060406;28;20463;-90
2022/12/27 07:29:28;;;;;;;32.08;11.70;;;1.40;99.90;;;;;;5015886;28;20405;-90
2022/12/27 07:31:53;;;;;;;39.78;13.57;;;1.40;99.90;;;;;;5014884;28;20026;-89
2022/12/27 07:34:20;;;;;;;36.80;13.15;;;1.50;99.90;;;;;;5012222;28;20378;-90
2022/12/27 07:36:46;;;;;;;30.33;10.85;;;1.50;99.90;;;;;;5018632;28;20448;-90
2022/12/27 07:39:12;;;;;;;33.33;11.32;;;1.50;99.90;;;;;;5019130;28;20055;-90
2022/12/27 07:41:38;;;;;;;33.70;13.70;;;1.60;99.90;;;;;;5015197;28;20065;-90
2022/12/27 07:44:06;;;;;;;38.67;13.80;;;1.70;99.90;;;;;;5070328;28;20064;-90
2022/12/27 07:46:32;;;;;;;49.00;12.57;;;1.70;99.90;;;;;;5067996;28;20015;-90
2022/12/27 07:48:58;;;;;;;30.23;11.93;;;1.70;99.90;;;;;;5034428;28;20385;-90
2022/12/27 07:51:30;;;;;;;34.45;11.68;;;1.70;99.90;;;;;;5078981;28;20028;-90
2022/12/27 07:53:56;;;;;;;34.20;11.05;;;1.70;99.90;;;;;;5067439;28;20030;-90
2022/12/27 07:56:24;;;;;;;36.65;11.70;;;1.70;99.90;;;;;;5062526;28;20016;-90
2022/12/27 07:58:52;;;;;;;32.28;11.75;;;1.70;99.90;;;;;;5008457;28;20034;-90
2022/12/27 08:01:20;;;;;;;29.40;11.48;;;1.80;99.90;;;;;;5081596;28;20027;-90
2022/12/27 08:03:46;;;;;;;30.50;10.70;;;1.80;99.90;;;;;;5102751;27;20033;-90
2022/12/27 08:10:00;;;;;;;40.30;12.75;;;1.80;99.90;;;;;;5040630;28;20044;-90
2022/12/27 08:12:26;;;;;;;38.47;11.45;;;1.80;99.90;;;;;;5082420;28;20020;-89
2022/12/27 08:14:51;;;;;;;38.72;12.73;;;1.80;99.90;;;;;;5061108;28;20546;-90
2022/12/27 08:17:21;;;;;;;34.38;12.00;;;1.80;99.90;;;;;;5091564;28;20430;-90
2022/12/27 08:19:47;;;;;;;33.60;11.80;;;1.80;99.90;;;;;;5065684;28;20023;-90
2022/12/27 08:22:12;;;;;;;33.80;11.38;;;1.90;99.90;;;;;;5069193;28;20157;-89
2022/12/27 08:24:40;;;;;;;32.10;10.63;;;1.90;99.90;;;;;;5079090;28;20023;-90
2022/12/27 08:27:06;;;;;;;29.17;11.38;;;1.80;99.90;;;;;;5058040;28;20027;-90
2022/12/27 08:29:32;;;;;;;33.92;10.75;;;1.80;99.90;;;;;;5064091;28;20475;-90
2022/12/27 08:31:58;;;;;;;31.25;9.60;;;1.60;99.90;;;;;;5061285;28;20034;-90
2022/12/27 08:34:23;;;;;;;27.83;8.55;;;1.60;99.90;;;;;;5076056;28;20050;-89
2022/12/27 08:36:50;;;;;;;24.83;9.85;;;1.60;99.90;;;;;;5052234;28;20036;-89
2022/12/27 08:39:16;;;;;;;24.95;8.73;;;1.50;99.90;;;;;;5068361;28;20047;-90
2022/12/27 08:41:42;;;;;;;40.83;11.07;;;1.50;99.90;;;;;;5050645;28;20024;-90
2022/12/27 08:44:09;;;;;;;35.72;10.63;;;1.60;99.90;;;;;;5074238;28;20073;-90
2022/12/27 08:46:35;;;;;;;27.50;11.57;;;1.60;99.90;;;;;;5035476;28;20028;-90
2022/12/27 08:49:00;;;;;;;32.97;11.73;;;1.70;99.90;;;;;;5059192;28;20447;-90
2022/12/27 08:51:27;;;;;;;32.40;11.18;;;1.70;99.90;;;;;;5085965;28;20057;-90
2022/12/27 08:53:52;;;;;;;29.85;10.55;;;1.80;99.90;;;;;;5096188;28;20036;-90
2022/12/27 08:56:18;;;;;;;29.27;8.43;;;1.80;99.90;;;;;;5043423;28;20121;-90
2022/12/27 08:58:44;;;;;;;29.33;10.68;;;1.90;99.90;;;;;;5077594;28;20057;-89
2022/12/27 09:01:10;;;;;;;27.45;8.85;;;1.90;99.90;;;;;;5013362;28;20024;-90
2022/12/27 09:03:36;;;;;;;23.23;8.63;;;1.90;99.90;;;;;;5081090;28;20561;-90
2022/12/27 09:06:16;;;;;;;36.25;11.48;;;1.90;99.90;;;;;;5088883;28;20061;-90
2022/12/27 09:08:44;;;;;;;24.63;9.85;;;1.90;99.90;;;;;;5039099;28;20087;-91
2022/12/27 09:11:15;;;;;;;30.52;8.82;;;1.90;99.90;;;;;;5101344;28;20046;-90
2022/12/27 09:13:41;;;;;;;32.72;12.60;;;2.00;99.90;;;;;;5049344;28;20026;-90
2022/12/27 09:16:09;;;;;;;32.70;11.07;;;2.00;99.90;;;;;;5115218;28;20490;-89
2022/12/27 09:18:36;;;;;;;27.98;8.95;;;2.00;99.90;;;;;;5042683;28;20030;-89
2022/12/27 09:21:08;;;;;;;30.95;9.00;;;2.10;99.90;;;;;;5119274;27;20036;-91
2022/12/27 09:23:37;;;;;;;18.42;7.30;;;2.10;99.90;;;;;;5052531;28;20025;-89
2022/12/27 09:26:15;;;;;;;24.05;7.60;;;2.20;99.90;;;;;;5114204;28;20027;-90
2022/12/27 09:28:41;;;;;;;20.25;7.63;;;2.10;99.90;;;;;;5040881;28;20079;-89
2022/12/27 09:31:09;;;;;;;27.42;8.45;;;2.10;99.90;;;;;;5122381;27;20065;-90
2022/12/27 09:33:35;;;;;;;26.55;8.93;;;2.10;99.90;;;;;;5026305;28;20022;-90
2022/12/27 09:36:10;;;;;;;24.77;7.75;;;2.20;99.90;;;;;;5048106;28;20079;-89
2022/12/27 09:38:36;;;;;;;22.25;6.60;;;2.20;99.90;;;;;;5067844;28;20039;-91
2022/12/27 09:41:06;;;;;;;22.60;6.38;;;2.20;99.90;;;;;;5071500;28;20060;-91
2022/12/27 09:43:43;;;;;;;17.45;8.27;;;2.30;99.90;;;;;;5060955;28;20379;-89
2022/12/27 09:46:23;;;;;;;26.98;8.13;;;2.30;99.90;;;;;;5065978;28;20421;-89
2022/12/27 09:48:51;;;;;;;20.60;7.95;;;2.30;99.90;;;;;;5077158;28;20061;-90
2022/12/27 09:51:24;;;;;;;22.83;6.85;;;2.30;99.90;;;;;;5023647;28;20045;-90
2022/12/27 09:54:13;;;;;;;23.55;10.15;;;2.50;99.90;;;;;;5066721;28;20034;-90
2022/12/27 09:56:40;;;;;;;17.65;7.60;;;2.60;99.90;;;;;;5107972;28;20015;-90
2022/12/27 09:59:19;;;;;;;20.05;6.43;;;2.60;99.90;;;;;;5077284;28;20468;-90
2022/12/27 10:01:47;;;;;;;19.08;6.53;;;2.60;99.90;;;;;;5093745;28;20029;-90
2022/12/27 10:04:16;;;;;;;18.80;6.18;;;2.60;99.90;;;;;;5076422;28;20024;-91
2022/12/27 10:06:47;;;;;;;19.38;6.68;;;2.70;99.90;;;;;;5065373;28;20022;-90
2022/12/27 10:09:33;;;;;;;27.48;7.05;;;2.70;99.90;;;;;;5034514;28;20367;-90
2022/12/27 10:12:23;;;;;;;20.15;5.38;;;2.90;99.90;;;;;;5048715;28;20076;-90
2022/12/27 10:14:57;;;;;;;21.30;5.13;;;2.90;99.90;;;;;;5070962;28;20382;-90
2022/12/27 10:17:48;;;;;;;15.15;4.53;;;3.00;99.90;;;;;;5012104;28;20026;-90
2022/12/27 10:20:20;;;;;;;;;;;3.10;99.90;;;;;;5064890;28;20038;-90
2022/12/27 10:22:56;;;;;;;14.82;6.03;;;3.20;99.90;;;;;;5091461;28;19909;-89
2022/12/27 10:25:23;;;;;;;19.27;4.85;;;3.30;99.90;;;;;;5108130;28;20023;-90
2022/12/27 10:27:57;;;;;;;11.55;4.22;;;3.50;99.90;;;;;;5067388;28;20080;-90
2022/12/27 10:30:39;;;;;;;11.68;4.78;;;3.80;99.90;;;;;;5133457;27;20058;-90
2022/12/27 10:33:06;;;;;;;15.75;4.22;;;4.30;99.90;;;;;;5062755;28;20114;-90
2022/12/27 10:35:32;;;;;;;13.27;4.68;;;4.60;99.90;;;;;;5065276;28;20055;-90
2022/12/27 10:38:00;;;;;;;14.02;4.00;;;4.80;99.90;;;;;;5069766;28;20039;-90
2022/12/27 10:40:38;;;;;;;13.77;3.78;;;4.80;99.90;;;;;;5063321;28;20084;-90
2022/12/27 10:43:12;;;;;;;9.95;3.50;;;4.80;99.90;;;;;;5076156;28;20024;-90
2022/12/27 10:45:41;;;;;;;13.43;3.05;;;4.50;99.90;;;;;;5077363;28;20042;-90
2022/12/27 10:48:23;;;;;;;10.60;3.25;;;4.30;99.90;;;;;;5059464;28;20056;-89
2022/12/27 10:51:05;;;;;;;7.85;3.13;;;4.10;99.90;;;;;;5084833;28;20037;-90
2022/12/27 10:53:35;;;;;;;15.90;4.45;;;4.00;99.90;;;;;;5086685;27;20504;-90
2022/12/27 10:56:14;;;;;;;7.30;3.30;;;3.90;99.90;;;;;;4988178;28;20026;-90
2022/12/27 10:58:43;;;;;;;11.68;3.55;;;3.90;99.90;;;;;;4992906;28;20045;-89
2022/12/27 11:01:23;;;;;;;12.20;3.33;;;4.00;99.90;;;;;;5002857;28;20371;-89
2022/12/27 11:03:50;;;;;;;15.98;3.53;;;4.00;99.90;;;;;;4991859;28;20087;-90
2022/12/27 11:06:24;;;;;;;16.85;3.40;;;4.00;99.90;;;;;;5022524;28;20049;-90
2022/12/27 11:08:52;;;;;;;11.20;3.50;;;3.90;99.90;;;;;;5094636;28;20034;-90
2022/12/27 11:11:23;;;;;;;9.90;3.60;;;3.80;99.90;;;;;;4999620;28;20120;-90
2022/12/27 11:13:50;;;;;;;10.73;3.90;;;3.80;99.90;;;;;;5009910;28;20041;-89
2022/12/27 11:16:15;;;;;;;17.95;3.75;;;3.80;99.90;;;;;;5092056;28;20050;-89
2022/12/27 11:18:49;;;;;;;14.05;4.55;;;3.80;99.90;;;;;;5080218;28;20146;-90
2022/12/27 11:21:16;;;;;;;12.30;4.72;;;3.90;99.90;;;;;;5011422;28;20026;-89
2022/12/27 11:23:49;;;;;;;14.82;4.38;;;4.10;99.90;;;;;;4994255;28;20071;-90
2022/12/27 11:26:58;;;;;;;13.15;3.83;;;4.20;99.90;;;;;;5002666;28;20814;-91
2022/12/27 11:29:27;;;;;;;17.30;4.35;;;4.20;99.90;;;;;;5053979;28;20038;-90
2022/12/27 11:31:54;;;;;;;13.60;4.85;;;4.30;99.90;;;;;;5097572;28;20031;-90
2022/12/27 11:34:32;;;;;;;23.42;6.28;;;4.30;99.90;;;;;;5088656;28;20079;-90
2022/12/27 11:37:13;;;;;;;15.30;4.68;;;4.40;99.90;;;;;;5038333;28;20130;-90
2022/12/27 11:39:48;;;;;;;12.70;3.78;;;4.60;99.90;;;;;;5064704;28;20055;-89
2022/12/27 11:42:43;;;;;;;10.23;4.53;;;4.40;99.90;;;;;;5108354;28;20025;-91
2022/12/27 11:45:17;;;;;;;13.32;3.58;;;4.40;99.90;;;;;;5047329;28;20033;-90
2022/12/27 11:47:57;;;;;;;11.45;4.50;;;4.30;99.90;;;;;;5085498;28;20026;-91
2022/12/27 11:50:26;;;;;;;15.38;5.50;;;4.50;99.90;;;;;;5046532;28;20059;-90
2022/12/27 11:53:29;;;;;;;21.13;5.95;;;4.60;99.90;;;;;;5062325;28;20041;-89
2022/12/27 11:55:54;;;;;;;8.25;3.30;;;4.90;99.90;;;;;;5010097;28;20037;-90
2022/12/27 11:58:35;;;;;;;14.07;3.90;;;4.60;99.90;;;;;;5042446;28;20091;-90
2022/12/27 12:01:16;;;;;;;11.97;4.77;;;4.70;99.90;;;;;;5067127;28;20505;-90
2022/12/27 12:03:59;;;;;;;10.20;4.22;;;4.60;99.90;;;;;;5079483;28;20486;-90
2022/12/27 12:06:34;;;;;;;12.77;3.70;;;4.70;99.90;;;;;;5052930;28;20031;-90
2022/12/27 12:09:21;;;;;;;13.10;3.92;;;4.80;99.90;;;;;;5070502;28;20036;-90
2022/12/27 12:12:13;;;;;;;12.20;3.05;;;4.80;99.90;;;;;;5073559;28;20031;-89
2022/12/27 12:15:01;;;;;;;16.95;4.63;;;4.60;99.90;;;;;;5070661;28;20118;-90
2022/12/27 12:17:38;;;;;;;8.10;3.90;;;4.50;99.90;;;;;;5073483;28;20113;-89
2022/12/27 12:20:06;;;;;;;12.45;3.58;;;4.50;99.90;;;;;;5086166;28;20061;-90
2022/12/27 12:22:38;;;;;;;25.02;4.30;;;4.60;99.90;;;;;;5083773;28;20072;-90
2022/12/27 12:25:06;;;;;;;;;;;4.70;99.90;;;;;;5079137;28;20475;-91
2022/12/27 12:27:38;;;;;;;15.07;3.97;;;4.70;99.90;;;;;;5113212;28;20443;-90
2022/12/27 12:30:13;;;;;;;;;;;4.60;99.90;;;;;;5085546;28;20375;-91
2022/12/27 12:33:17;;;;;;;17.15;4.00;;;4.70;99.90;;;;;;5067215;28;20022;-89
2022/12/27 12:35:52;;;;;;;14.60;3.70;;;4.80;99.90;;;;;;4993534;28;20039;-90
2022/12/27 12:38:21;;;;;;;15.82;3.58;;;4.90;99.90;;;;;;5088703;28;20032;-90
2022/12/27 12:41:10;;;;;;;11.82;3.30;;;4.90;99.90;;;;;;5077559;28;20035;-89
2022/12/27 12:44:03;;;;;;;16.55;6.82;;;4.70;99.90;;;;;;5016477;28;20117;-90
2022/12/27 12:47:01;;;;;;;10.73;2.63;;;4.50;99.90;;;;;;5046154;28;20065;-90
2022/12/27 12:49:47;;;;;;;13.23;4.25;;;4.40;99.90;;;;;;5006200;28;20026;-90
2022/12/27 12:52:43;;;;;;;13.43;3.88;;;4.40;99.90;;;;;;4989395;28;20389;-90
2022/12/27 12:55:25;;;;;;;11.23;3.22;;;4.60;99.90;;;;;;5026080;28;20069;-90
2022/12/27 12:58:06;;;;;;;11.88;3.72;;;4.60;99.90;;;;;;4982789;28;20034;-90
2022/12/27 13:00:35;;;;;;;14.67;3.60;;;4.50;99.90;;;;;;4975595;28;20474;-91
2022/12/27 13:03:23;;;;;;;19.60;3.83;;;4.50;99.90;;;;;;5081701;28;20354;-89
2022/12/27 13:05:59;;;;;;;14.70;4.18;;;4.50;99.90;;;;;;5086413;28;20033;-89
2022/12/27 13:08:37;;;;;;;6.90;2.58;;;4.40;99.90;;;;;;4999574;28;20026;-90
2022/12/27 13:11:32;;;;;;;15.30;3.95;;;4.40;99.90;;;;;;4992674;28;20160;-90
2022/12/27 13:14:01;;;;;;;12.27;3.03;;;4.30;99.90;;;;;;4969545;28;62806;-91
2022/12/27 13:16:51;;;;;;;9.65;3.50;;;4.20;99.90;;;;;;5051792;28;20031;-90
2022/12/27 13:19:43;;;;;;;16.27;4.43;;;4.20;99.90;;;;;;5053758;28;20031;-90
2022/12/27 13:22:32;;;;;;;12.23;3.00;;;4.10;99.90;;;;;;4951921;28;20065;-90
2022/12/27 13:25:04;;;;;;;18.25;3.80;;;4.10;99.90;;;;;;4947743;28;20035;-89
2022/12/27 13:27:30;;;;;;;10.45;3.80;;;3.90;99.90;;;;;;4960974;28;20027;-90
2022/12/27 13:30:18;;;;;;;17.92;5.18;;;3.80;99.90;;;;;;4954201;28;20478;-90
2022/12/27 13:32:58;;;;;;;15.60;3.85;;;3.70;99.90;;;;;;4955072;28;20035;-90
2022/12/27 13:35:53;;;;;;;13.63;4.30;;;3.50;99.90;;;;;;4966305;28;20548;-89
2022/12/27 13:38:46;;;;;;;17.80;3.75;;;3.40;99.90;;;;;;4946266;28;20487;-90
2022/12/27 13:41:36;;;;;;;18.35;5.20;;;3.30;99.90;;;;;;5051650;28;20030;-90
2022/12/27 13:44:31;;;;;;;22.67;6.05;;;3.30;99.90;;;;;;4952301;28;20031;-90
2022/12/27 13:47:18;;;;;;;14.55;4.80;;;3.30;99.90;;;;;;4969315;28;20030;-90
2022/12/27 13:50:11;;;;;;;12.45;3.83;;;3.30;99.90;;;;;;4999823;28;20038;-91
2022/12/27 13:52:51;;;;;;;12.07;3.88;;;3.20;99.90;;;;;;5052750;28;20377;-91
2022/12/27 13:55:36;;;;;;;18.85;4.72;;;3.10;99.90;;;;;;4949736;28;20038;-90
2022/12/27 13:58:35;;;;;;;15.73;6.03;;;3.10;99.90;;;;;;4970075;28;20070;-90
2022/12/27 14:01:28;;;;;;;16.40;4.07;;;3.10;99.90;;;;;;4970546;28;20088;-90
2022/12/27 14:04:07;;;;;;;9.45;4.90;;;3.20;99.90;;;;;;4966288;28;20035;-90
2022/12/27 14:06:41;;;;;;;14.18;4.00;;;3.40;99.90;;;;;;5055022;28;20114;-89
2022/12/27 14:09:28;;;;;;;20.30;4.97;;;3.50;99.90;;;;;;4956863;28;20035;-90
2022/12/27 14:12:08;;;;;;;21.38;5.40;;;3.70;99.90;;;;;;4984588;28;20121;-90
2022/12/27 14:14:37;;;;;;;12.00;4.32;;;3.80;99.90;;;;;;4982117;28;20093;-89
2022/12/27 14:17:09;;;;;;;17.58;5.20;;;3.80;99.90;;;;;;5058317;28;20052;-90
2022/12/27 14:20:01;;;;;;;11.90;3.95;;;3.70;99.90;;;;;;4977384;28;20513;-89
2022/12/27 14:22:36;;;;;;;10.77;3.65;;;3.50;99.90;;;;;;5000366;28;20089;-90
2022/12/27 14:25:40;;;;;;;18.45;3.67;;;3.40;99.90;;;;;;5058136;28;20054;-89
2022/12/27 14:28:36;;;;;;;15.80;4.97;;;3.30;99.90;;;;;;5054772;28;20124;-89
2022/12/27 14:31:19;;;;;;;12.15;3.75;;;3.40;99.90;;;;;;4984522;28;20482;-90
2022/12/27 14:33:45;;;;;;;10.80;4.78;;;3.30;99.90;;;;;;5061397;28;20023;-90
2022/12/27 14:36:43;;;;;;;21.05;5.03;;;3.20;99.90;;;;;;4956893;28;20389;-90
2022/12/27 14:39:28;;;;;;;22.17;4.72;;;3.30;99.90;;;;;;4984337;28;20047;-90
2022/12/27 14:42:31;;;;;;;13.23;4.70;;;3.30;99.90;;;;;;4956817;28;20482;-90
2022/12/27 14:45:41;;;;;;;14.02;4.60;;;3.30;99.90;;;;;;5024105;28;20196;-90
2022/12/27 14:48:36;;;;;;;12.77;4.75;;;3.30;99.90;;;;;;4993812;28;20025;-89
2022/12/27 14:51:34;;;;;;;15.32;4.22;;;3.20;99.90;;;;;;5002093;28;20029;-90
2022/12/27 14:54:20;;;;;;;16.25;4.82;;;3.00;99.90;;;;;;4961481;28;20082;-91
2022/12/27 14:57:07;;;;;;;13.45;5.22;;;3.00;99.90;;;;;;4956066;28;20031;-90
2022/12/27 14:59:58;;;;;;;18.88;4.85;;;2.80;99.90;;;;;;4957221;28;20034;-90
2022/12/27 15:02:33;;;;;;;18.95;5.68;;;2.70;99.90;;;;;;5057805;28;20054;-90
2022/12/27 15:05:20;;;;;;;14.13;4.60;;;2.60;99.90;;;;;;4952662;28;20497;-90
2022/12/27 15:07:49;;;;;;;18.50;5.95;;;2.50;99.90;;;;;;4976828;28;20045;-90